Time;durP1;ratioP1;P1;durP2;ratioP2;P2;SDS_P1;SDS_P2;PMS_P1;PMS_P2;Temp;Humidity;BMP_temperature;BMP_pressure;BME280_temperature;BME280_humidity;BME280_pressure;Samples;Min_cycle;Max_cycle;Signal;HPM_P1;HPM_P2
2023/07/27 00:00:06;;;;;;;8.60;6.90;;;;;;;;;;4934948;29;20048;-70
2023/07/27 00:02:33;;;;;;;7.80;7.05;;;;;;;;;;4934961;29;20598;-70
2023/07/27 00:04:59;;;;;;;7.68;7.13;;;;;;;;;;4935045;29;20118;-71
2023/07/27 00:07:25;;;;;;;7.53;6.80;;;;;;;;;;4935108;29;20055;-71
2023/07/27 00:09:51;;;;;;;8.48;7.70;;;;;;;;;;4934780;29;20044;-71
2023/07/27 00:12:17;;;;;;;10.45;7.25;;;;;;;;;;4933835;29;20046;-71
2023/07/27 00:14:43;;;;;;;8.23;7.53;;;;;;;;;;4934650;29;20039;-71
2023/07/27 00:17:09;;;;;;;10.38;7.68;;;;;;;;;;4933813;29;20065;-70
2023/07/27 00:19:35;;;;;;;7.78;7.28;;;;;;;;;;4933359;29;20483;-71
2023/07/27 00:22:01;;;;;;;7.65;6.95;;;;;;;;;;4934865;29;20083;-72
2023/07/27 00:24:27;;;;;;;8.80;8.07;;;;;;;;;;4933396;29;20035;-71
2023/07/27 00:26:53;;;;;;;8.88;7.57;;;;;;;;;;4934527;29;20049;-70
2023/07/27 00:29:19;;;;;;;7.57;6.97;;;;;;;;;;4935115;29;20035;-70
2023/07/27 00:31:45;;;;;;;11.23;7.38;;;;;;;;;;4935655;29;20035;-70
2023/07/27 00:34:11;;;;;;;8.52;7.70;;;;;;;;;;4936025;29;20486;-71
2023/07/27 00:36:37;;;;;;;7.72;7.13;;;;;;;;;;4934810;29;20032;-72
2023/07/27 00:39:04;;;;;;;7.85;6.68;;;;;;;;;;4935819;29;20423;-70
2023/07/27 00:41:30;;;;;;;6.97;6.47;;;;;;;;;;4935439;29;20035;-72
2023/07/27 00:43:56;;;;;;;8.05;6.95;;;;;;;;;;4935261;29;20038;-71
2023/07/27 00:46:22;;;;;;;8.45;6.90;;;;;;;;;;4935094;29;20039;-70
2023/07/27 00:48:49;;;;;;;8.25;7.43;;;;;;;;;;4934781;29;20039;-72
2023/07/27 00:51:15;;;;;;;9.27;7.50;;;;;;;;;;4934728;29;20043;-71
2023/07/27 00:53:41;;;;;;;8.10;7.38;;;;;;;;;;4932935;29;20047;-72
2023/07/27 00:56:08;;;;;;;12.07;7.55;;;;;;;;;;4933893;29;20055;-72
2023/07/27 00:58:34;;;;;;;7.55;6.80;;;;;;;;;;4934061;29;20213;-70
2023/07/27 01:01:00;;;;;;;14.85;7.40;;;;;;;;;;4932852;29;20063;-72
2023/07/27 01:03:26;;;;;;;8.73;7.88;;;;;;;;;;4933138;29;20126;-71
2023/07/27 01:05:52;;;;;;;8.10;7.20;;;;;;;;;;4932777;29;20119;-71
2023/07/27 01:08:18;;;;;;;8.27;7.47;;;;;;;;;;4934035;29;20526;-71
2023/07/27 01:11:05;;;;;;;8.57;7.55;;;;;;;;;;4933620;29;20045;-71
2023/07/27 01:13:35;;;;;;;9.18;8.23;;;;;;;;;;4934079;29;20042;-71
2023/07/27 01:16:04;;;;;;;10.30;7.38;;;;;;;;;;4932569;29;20043;-71
2023/07/27 01:18:46;;;;;;;11.45;8.32;;;;;;;;;;4932500;29;20388;-71
2023/07/27 01:21:32;;;;;;;11.00;7.60;;;;;;;;;;4933651;29;20526;-71
2023/07/27 01:24:01;;;;;;;10.40;7.55;;;;;;;;;;4932459;29;20099;-71
2023/07/27 01:26:30;;;;;;;10.27;7.57;;;;;;;;;;4932506;29;20195;-72
2023/07/27 01:28:56;;;;;;;8.50;7.80;;;;;;;;;;4917746;29;20046;-70
2023/07/27 01:31:23;;;;;;;8.10;7.40;;;;;;;;;;4934195;29;20036;-70
2023/07/27 01:33:52;;;;;;;9.32;7.85;;;;;;;;;;4933453;29;20044;-71
2023/07/27 01:36:21;;;;;;;8.77;8.02;;;;;;;;;;4934134;29;20039;-71
2023/07/27 01:38:48;;;;;;;17.08;8.18;;;;;;;;;;4932022;29;20051;-71
2023/07/27 01:41:14;;;;;;;8.40;7.35;;;;;;;;;;4916245;29;20126;-70
2023/07/27 01:43:40;;;;;;;8.50;7.80;;;;;;;;;;4933199;29;20127;-71
2023/07/27 01:46:06;;;;;;;8.90;8.07;;;;;;;;;;4932992;29;20040;-70
2023/07/27 01:48:32;;;;;;;9.18;8.43;;;;;;;;;;4934374;29;20051;-72
2023/07/27 01:50:58;;;;;;;11.32;8.85;;;;;;;;;;4933779;29;20071;-72
2023/07/27 01:53:24;;;;;;;9.45;8.00;;;;;;;;;;4934147;29;20503;-73
2023/07/27 01:55:50;;;;;;;8.80;7.80;;;;;;;;;;4935678;29;20110;-72
2023/07/27 01:58:18;;;;;;;9.52;8.00;;;;;;;;;;4936177;29;20499;-72
2023/07/27 02:00:44;;;;;;;9.10;8.15;;;;;;;;;;4919334;29;20042;-72
2023/07/27 02:03:10;;;;;;;9.73;7.93;;;;;;;;;;4934599;29;20044;-70
2023/07/27 02:05:36;;;;;;;8.65;7.65;;;;;;;;;;4935317;29;20038;-71
2023/07/27 02:08:02;;;;;;;9.38;7.60;;;;;;;;;;4932970;29;20047;-70
2023/07/27 02:10:28;;;;;;;8.25;7.53;;;;;;;;;;4933216;29;20143;-72
2023/07/27 02:13:02;;;;;;;9.35;7.88;;;;;;;;;;4917354;29;20043;-73
2023/07/27 02:15:39;;;;;;;8.95;8.07;;;;;;;;;;4932811;29;20423;-72
2023/07/27 02:18:07;;;;;;;8.52;7.78;;;;;;;;;;4931919;29;20055;-72
2023/07/27 02:20:33;;;;;;;11.52;8.80;;;;;;;;;;4931783;29;20036;-72
2023/07/27 02:23:01;;;;;;;9.75;8.82;;;;;;;;;;4931574;29;20050;-72
2023/07/27 02:25:28;;;;;;;9.43;8.52;;;;;;;;;;4931758;29;20043;-71
2023/07/27 02:27:54;;;;;;;9.02;8.15;;;;;;;;;;4934701;29;20051;-71
2023/07/27 02:30:21;;;;;;;10.43;7.90;;;;;;;;;;4935178;29;20043;-70
2023/07/27 02:32:47;;;;;;;13.57;8.52;;;;;;;;;;4935916;29;20043;-71
2023/07/27 02:35:13;;;;;;;13.70;8.10;;;;;;;;;;4933304;29;20063;-70
2023/07/27 02:37:44;;;;;;;11.20;8.95;;;;;;;;;;4931931;29;20047;-72
2023/07/27 02:40:10;;;;;;;12.07;8.60;;;;;;;;;;4932767;29;20039;-72
2023/07/27 02:42:36;;;;;;;17.05;9.75;;;;;;;;;;4932973;29;20044;-72
2023/07/27 02:45:02;;;;;;;13.30;9.52;;;;;;;;;;4932409;29;20578;-72
2023/07/27 02:47:33;;;;;;;14.52;10.05;;;;;;;;;;4931498;29;20114;-71
2023/07/27 02:49:59;;;;;;;9.57;8.68;;;;;;;;;;4932259;29;20050;-72
2023/07/27 02:52:26;;;;;;;10.32;9.52;;;;;;;;;;4931417;29;20475;-71
2023/07/27 02:54:52;;;;;;;11.40;10.50;;;;;;;;;;4932133;29;20043;-70
2023/07/27 02:57:19;;;;;;;11.25;10.05;;;;;;;;;;4931237;29;20066;-72
2023/07/27 02:59:49;;;;;;;11.70;10.57;;;;;;;;;;4931075;29;20040;-70
2023/07/27 03:02:15;;;;;;;12.95;11.80;;;;;;;;;;4931374;29;20035;-71
2023/07/27 03:04:43;;;;;;;13.50;11.98;;;;;;;;;;4931022;29;20265;-71
2023/07/27 03:07:10;;;;;;;13.00;11.95;;;;;;;;;;4931188;29;20098;-71
2023/07/27 03:09:37;;;;;;;12.13;10.90;;;;;;;;;;4931307;29;20058;-72
2023/07/27 03:12:03;;;;;;;17.45;12.85;;;;;;;;;;4932249;29;20550;-71
2023/07/27 03:14:29;;;;;;;13.88;11.65;;;;;;;;;;4931329;29;20035;-70
2023/07/27 03:16:55;;;;;;;13.30;10.68;;;;;;;;;;4930993;29;20044;-71
2023/07/27 03:19:21;;;;;;;11.90;10.50;;;;;;;;;;4932409;29;20063;-72
2023/07/27 03:21:48;;;;;;;16.77;10.90;;;;;;;;;;4932294;29;20040;-72
2023/07/27 03:24:16;;;;;;;16.30;14.60;;;;;;;;;;4932525;29;20134;-71
2023/07/27 03:26:43;;;;;;;16.50;13.13;;;;;;;;;;4930673;29;20035;-72
2023/07/27 03:29:09;;;;;;;15.88;11.25;;;;;;;;;;4931729;29;20039;-72
2023/07/27 03:31:35;;;;;;;14.90;10.90;;;;;;;;;;4935828;29;20059;-74
2023/07/27 03:34:02;;;;;;;19.92;11.32;;;;;;;;;;4935496;29;20606;-71
2023/07/27 03:36:29;;;;;;;13.73;11.00;;;;;;;;;;4935676;29;20161;-72
2023/07/27 03:38:54;;;;;;;11.15;10.02;;;;;;;;;;4902645;29;20138;-72
2023/07/27 03:41:20;;;;;;;12.80;11.65;;;;;;;;;;4918793;29;20067;-72
2023/07/27 03:43:47;;;;;;;13.63;11.07;;;;;;;;;;4935436;29;20506;-71
2023/07/27 03:46:14;;;;;;;11.85;10.63;;;;;;;;;;4934658;29;20067;-72
2023/07/27 03:48:40;;;;;;;11.68;10.57;;;;;;;;;;4936906;29;20043;-73
2023/07/27 03:51:05;;;;;;;12.50;11.30;;;;;;;;;;4934858;29;20596;-71
2023/07/27 03:53:31;;;;;;;12.43;11.18;;;;;;;;;;4936160;29;20091;-71
2023/07/27 03:56:01;;;;;;;12.98;11.40;;;;;;;;;;4934939;29;20102;-71
2023/07/27 03:58:27;;;;;;;13.82;11.00;;;;;;;;;;4934228;29;20086;-71
2023/07/27 04:00:53;;;;;;;18.17;10.88;;;;;;;;;;4933613;29;20505;-74
2023/07/27 04:03:19;;;;;;;12.43;10.43;;;;;;;;;;4934138;29;20515;-72
2023/07/27 04:05:45;;;;;;;11.07;10.20;;;;;;;;;;4933728;29;20075;-71
2023/07/27 04:08:11;;;;;;;15.13;10.52;;;;;;;;;;4933816;29;20092;-70
2023/07/27 04:10:38;;;;;;;14.73;10.80;;;;;;;;;;4933968;29;20198;-70
2023/07/27 04:13:04;;;;;;;14.07;9.93;;;;;;;;;;4934831;29;20130;-70
2023/07/27 04:15:30;;;;;;;11.23;10.13;;;;;;;;;;4935101;29;20182;-71
2023/07/27 04:17:56;;;;;;;11.60;10.38;;;;;;;;;;4934877;29;20043;-72
2023/07/27 04:20:22;;;;;;;13.32;10.68;;;;;;;;;;4934939;29;20035;-72
2023/07/27 04:22:48;;;;;;;11.82;10.40;;;;;;;;;;4934741;29;20119;-70
2023/07/27 04:25:14;;;;;;;11.43;10.38;;;;;;;;;;4902138;29;20418;-71
2023/07/27 04:27:41;;;;;;;10.00;9.05;;;;;;;;;;4934776;29;20192;-71
2023/07/27 04:30:07;;;;;;;10.50;9.43;;;;;;;;;;4934216;29;20123;-73
2023/07/27 04:32:33;;;;;;;10.40;9.57;;;;;;;;;;4918104;29;20048;-72
2023/07/27 04:34:59;;;;;;;12.20;11.00;;;;;;;;;;4936848;29;20059;-73
2023/07/27 04:37:26;;;;;;;11.23;10.02;;;;;;;;;;4939239;29;20055;-71
2023/07/27 04:39:52;;;;;;;11.93;10.82;;;;;;;;;;4921014;29;20056;-72
2023/07/27 04:42:18;;;;;;;11.60;10.60;;;;;;;;;;4935278;29;20047;-71
2023/07/27 04:44:44;;;;;;;12.32;10.95;;;;;;;;;;4917720;29;20079;-71
2023/07/27 04:47:10;;;;;;;13.50;11.15;;;;;;;;;;4932690;29;20071;-71
2023/07/27 04:49:36;;;;;;;13.30;10.82;;;;;;;;;;4934402;29;20463;-72
2023/07/27 04:52:02;;;;;;;12.07;10.95;;;;;;;;;;4934002;29;20044;-71
2023/07/27 04:54:28;;;;;;;12.90;11.10;;;;;;;;;;4934243;29;20028;-72
2023/07/27 04:56:54;;;;;;;13.45;11.63;;;;;;;;;;4932409;29;20060;-72
2023/07/27 04:59:20;;;;;;;15.20;12.02;;;;;;;;;;4933019;29;20058;-71
2023/07/27 05:01:46;;;;;;;14.10;10.95;;;;;;;;;;4933972;29;20442;-72
2023/07/27 05:04:13;;;;;;;11.70;10.60;;;;;;;;;;4934137;29;20048;-72
2023/07/27 05:06:39;;;;;;;13.27;10.70;;;;;;;;;;4933964;29;20047;-72
2023/07/27 05:09:05;;;;;;;11.13;10.10;;;;;;;;;;4933776;29;20451;-73
2023/07/27 05:11:31;;;;;;;12.85;10.52;;;;;;;;;;4933851;29;20062;-72
2023/07/27 05:13:57;;;;;;;11.93;10.65;;;;;;;;;;4933829;29;20031;-72
2023/07/27 05:16:23;;;;;;;12.40;10.35;;;;;;;;;;4933836;29;20106;-71
2023/07/27 05:18:49;;;;;;;12.13;10.88;;;;;;;;;;4916402;29;20086;-70
2023/07/27 05:21:15;;;;;;;12.68;11.57;;;;;;;;;;4933769;29;20071;-71
2023/07/27 05:23:41;;;;;;;13.23;11.95;;;;;;;;;;4938812;29;20041;-72
2023/07/27 05:26:07;;;;;;;13.88;11.13;;;;;;;;;;4935137;29;20082;-73
2023/07/27 05:28:33;;;;;;;11.90;10.88;;;;;;;;;;4933919;29;20410;-71
2023/07/27 05:30:59;;;;;;;13.43;11.20;;;;;;;;;;4934033;29;20131;-71
2023/07/27 05:33:25;;;;;;;12.15;10.95;;;;;;;;;;4933946;29;20114;-72
2023/07/27 05:35:51;;;;;;;11.98;11.07;;;;;;;;;;4933360;29;20043;-72
2023/07/27 05:38:17;;;;;;;11.93;10.85;;;;;;;;;;4933529;29;20070;-71
2023/07/27 05:40:43;;;;;;;12.00;11.00;;;;;;;;;;4933351;29;20036;-72
2023/07/27 05:43:09;;;;;;;12.10;11.00;;;;;;;;;;4933367;29;21054;-71
2023/07/27 05:45:36;;;;;;;11.50;10.40;;;;;;;;;;4934299;29;20098;-73
2023/07/27 05:48:02;;;;;;;13.27;9.93;;;;;;;;;;4933271;29;20365;-73
2023/07/27 05:50:28;;;;;;;11.15;10.15;;;;;;;;;;4933427;29;20188;-74
2023/07/27 05:52:54;;;;;;;14.32;10.52;;;;;;;;;;4932479;29;20045;-72
2023/07/27 05:55:20;;;;;;;10.02;9.13;;;;;;;;;;4933304;29;20046;-72
2023/07/27 05:57:46;;;;;;;11.02;9.23;;;;;;;;;;4933090;29;20063;-71
2023/07/27 06:00:13;;;;;;;10.85;9.75;;;;;;;;;;4932892;29;20035;-73
2023/07/27 06:02:39;;;;;;;10.70;9.75;;;;;;;;;;4933158;29;20122;-71
2023/07/27 06:05:05;;;;;;;10.10;8.55;;;;;;;;;;4932781;29;20051;-70
2023/07/27 06:07:31;;;;;;;9.45;8.52;;;;;;;;;;4931642;29;20043;-73
2023/07/27 06:09:58;;;;;;;10.25;8.18;;;;;;;;;;4931517;29;20040;-71
2023/07/27 06:12:23;;;;;;;9.60;8.73;;;;;;;;;;4932846;29;20042;-73
2023/07/27 06:14:51;;;;;;;12.80;8.65;;;;;;;;;;4931696;29;20035;-73
2023/07/27 06:17:17;;;;;;;8.45;7.40;;;;;;;;;;4931596;29;20042;-72
2023/07/27 06:19:43;;;;;;;8.55;7.70;;;;;;;;;;4931500;29;20047;-72
2023/07/27 06:22:09;;;;;;;10.15;7.40;;;;;;;;;;4932458;29;20126;-71
2023/07/27 06:24:36;;;;;;;8.32;7.55;;;;;;;;;;4932857;29;20039;-73
2023/07/27 06:27:02;;;;;;;8.60;6.97;;;;;;;;;;4932369;29;20126;-71
2023/07/27 06:29:28;;;;;;;10.85;7.00;;;;;;;;;;4932802;29;20459;-73
2023/07/27 06:31:54;;;;;;;11.70;7.78;;;;;;;;;;4931264;29;20071;-74
2023/07/27 06:34:20;;;;;;;9.18;7.15;;;;;;;;;;4932885;29;20040;-73
2023/07/27 06:36:46;;;;;;;8.05;7.15;;;;;;;;;;4931502;29;20790;-73
2023/07/27 06:39:12;;;;;;;11.02;7.20;;;;;;;;;;4931255;29;20044;-72
2023/07/27 06:41:38;;;;;;;7.63;6.18;;;;;;;;;;4932691;29;20134;-74
2023/07/27 06:44:07;;;;;;;9.50;5.60;;;;;;;;;;4932305;29;20036;-71
2023/07/27 06:46:33;;;;;;;5.47;4.97;;;;;;;;;;4932561;29;20188;-73
2023/07/27 06:48:59;;;;;;;5.43;4.47;;;;;;;;;;4931295;29;20047;-72
2023/07/27 06:51:25;;;;;;;7.30;4.90;;;;;;;;;;4932551;29;20455;-72
2023/07/27 06:53:51;;;;;;;6.38;4.97;;;;;;;;;;4915492;29;20043;-74
2023/07/27 06:56:17;;;;;;;8.75;5.88;;;;;;;;;;4931987;29;20062;-72
2023/07/27 06:58:43;;;;;;;6.20;5.70;;;;;;;;;;4932603;29;20487;-72
2023/07/27 07:01:10;;;;;;;6.75;5.15;;;;;;;;;;4932399;29;20537;-73
2023/07/27 07:03:36;;;;;;;5.22;4.82;;;;;;;;;;4933896;29;20546;-72
2023/07/27 07:06:02;;;;;;;6.43;5.47;;;;;;;;;;4934718;29;20351;-72
2023/07/27 07:08:29;;;;;;;5.90;5.22;;;;;;;;;;4936043;29;20563;-73
2023/07/27 07:10:55;;;;;;;6.00;5.28;;;;;;;;;;4936029;29;20040;-73
2023/07/27 07:13:21;;;;;;;5.88;5.25;;;;;;;;;;4936141;29;20558;-73
2023/07/27 07:15:49;;;;;;;5.80;5.30;;;;;;;;;;4936030;29;20447;-72
2023/07/27 07:18:15;;;;;;;10.05;5.78;;;;;;;;;;4935876;29;20032;-73
2023/07/27 07:20:41;;;;;;;5.70;5.25;;;;;;;;;;4936282;29;20040;-74
2023/07/27 07:23:07;;;;;;;6.53;4.93;;;;;;;;;;4935750;29;20067;-73
2023/07/27 07:25:33;;;;;;;5.75;5.15;;;;;;;;;;4935860;29;20063;-73
2023/07/27 07:27:59;;;;;;;5.90;5.32;;;;;;;;;;4935521;29;20099;-73
2023/07/27 07:30:25;;;;;;;4.50;4.10;;;;;;;;;;4935819;29;20578;-73
2023/07/27 07:32:52;;;;;;;3.72;3.42;;;;;;;;;;4934731;29;20086;-73
2023/07/27 07:35:19;;;;;;;4.72;4.22;;;;;;;;;;4934524;29;20036;-73
2023/07/27 07:37:45;;;;;;;4.35;3.95;;;;;;;;;;4936210;29;20423;-72
2023/07/27 07:40:11;;;;;;;5.57;4.28;;;;;;;;;;4938044;29;20380;-73
2023/07/27 07:42:37;;;;;;;4.75;4.35;;;;;;;;;;4937669;29;20075;-73
2023/07/27 07:45:04;;;;;;;5.38;4.88;;;;;;;;;;4934224;29;20591;-73
2023/07/27 07:47:32;;;;;;;5.18;4.68;;;;;;;;;;4935521;29;20058;-73
2023/07/27 07:49:58;;;;;;;6.07;4.97;;;;;;;;;;4934515;29;20035;-74
2023/07/27 07:52:24;;;;;;;5.70;5.13;;;;;;;;;;4935257;29;20039;-73
2023/07/27 07:54:50;;;;;;;4.70;4.30;;;;;;;;;;4934099;29;20128;-72
2023/07/27 07:57:19;;;;;;;5.72;4.72;;;;;;;;;;4933588;29;20121;-73
2023/07/27 07:59:45;;;;;;;7.63;5.13;;;;;;;;;;4935328;29;20822;-73
2023/07/27 08:02:12;;;;;;;9.32;5.80;;;;;;;;;;4934957;29;20107;-73
2023/07/27 08:04:38;;;;;;;10.25;5.70;;;;;;;;;;4935355;29;20168;-73
2023/07/27 08:07:04;;;;;;;7.30;5.78;;;;;;;;;;4934691;29;20050;-72
2023/07/27 08:09:31;;;;;;;12.10;5.10;;;;;;;;;;4935140;29;20036;-73
2023/07/27 08:11:56;;;;;;;10.63;4.25;;;;;;;;;;4935215;29;20044;-74
2023/07/27 08:14:24;;;;;;;8.38;5.60;;;;;;;;;;4936492;29;20038;-71
2023/07/27 08:16:50;;;;;;;12.52;5.50;;;;;;;;;;4935055;29;20042;-73
2023/07/27 08:19:16;;;;;;;16.45;5.90;;;;;;;;;;4934814;29;20043;-73
2023/07/27 08:21:42;;;;;;;8.93;5.50;;;;;;;;;;4934904;29;20122;-71
2023/07/27 08:24:08;;;;;;;6.43;5.15;;;;;;;;;;4933208;29;20135;-73
2023/07/27 08:26:34;;;;;;;9.38;5.30;;;;;;;;;;4934669;29;20102;-72
2023/07/27 08:29:00;;;;;;;5.13;4.63;;;;;;;;;;4934643;29;20066;-74
2023/07/27 08:31:27;;;;;;;5.80;4.63;;;;;;;;;;4934883;29;20506;-73
2023/07/27 08:33:54;;;;;;;6.93;4.57;;;;;;;;;;4933485;29;20039;-73
2023/07/27 08:36:20;;;;;;;5.63;5.13;;;;;;;;;;4933184;29;20527;-72
2023/07/27 08:38:46;;;;;;;9.82;6.10;;;;;;;;;;4934554;29;20531;-72
2023/07/27 08:41:12;;;;;;;5.53;5.05;;;;;;;;;;4934182;29;20055;-71
2023/07/27 08:43:38;;;;;;;5.20;4.80;;;;;;;;;;4933224;29;20091;-73
2023/07/27 08:46:04;;;;;;;5.88;4.95;;;;;;;;;;4934082;29;20044;-73
2023/07/27 08:48:30;;;;;;;7.10;4.75;;;;;;;;;;4934448;29;20051;-73
2023/07/27 08:50:57;;;;;;;4.95;4.55;;;;;;;;;;4933029;29;20047;-73
2023/07/27 08:53:23;;;;;;;7.85;5.03;;;;;;;;;;4932899;29;20043;-73
2023/07/27 08:55:49;;;;;;;5.47;4.88;;;;;;;;;;4934003;29;20131;-73
2023/07/27 08:58:15;;;;;;;7.88;4.85;;;;;;;;;;4933872;29;20139;-74
2023/07/27 09:00:41;;;;;;;5.70;4.80;;;;;;;;;;4934169;29;20236;-73
2023/07/27 09:03:07;;;;;;;8.50;5.20;;;;;;;;;;4932537;29;20554;-73
2023/07/27 09:05:39;;;;;;;10.73;5.30;;;;;;;;;;4934105;29;20061;-73
2023/07/27 09:08:05;;;;;;;6.38;4.97;;;;;;;;;;4934001;29;20091;-73
2023/07/27 09:10:31;;;;;;;7.78;5.03;;;;;;;;;;4934102;29;20119;-74
2023/07/27 09:13:00;;;;;;;6.03;4.82;;;;;;;;;;4932742;29;20118;-73
2023/07/27 09:15:26;;;;;;;5.55;5.15;;;;;;;;;;4933671;29;20099;-73
2023/07/27 09:17:52;;;;;;;5.72;4.80;;;;;;;;;;4933791;29;20047;-74
2023/07/27 09:20:19;;;;;;;8.30;4.97;;;;;;;;;;4933645;29;20066;-72
2023/07/27 09:22:45;;;;;;;5.47;5.05;;;;;;;;;;4933732;29;20047;-73
2023/07/27 09:25:11;;;;;;;5.95;5.35;;;;;;;;;;4933490;29;20039;-74
2023/07/27 09:27:42;;;;;;;6.95;5.35;;;;;;;;;;4931581;29;20062;-73
2023/07/27 09:30:08;;;;;;;5.50;5.00;;;;;;;;;;4933104;29;20040;-73
2023/07/27 09:32:35;;;;;;;5.53;5.03;;;;;;;;;;4933555;29;20050;-72
2023/07/27 09:35:01;;;;;;;7.70;4.70;;;;;;;;;;4933385;29;20545;-75
2023/07/27 09:37:29;;;;;;;6.95;4.20;;;;;;;;;;4933328;29;20040;-74
2023/07/27 09:40:07;;;;;;;5.20;4.20;;;;;;;;;;4916629;29;20042;-73
2023/07/27 09:42:34;;;;;;;5.72;4.68;;;;;;;;;;4933719;29;20036;-73
2023/07/27 09:45:00;;;;;;;5.43;4.70;;;;;;;;;;4933365;29;20039;-73
2023/07/27 09:47:31;;;;;;;5.05;4.65;;;;;;;;;;4933041;29;20510;-73
2023/07/27 09:50:00;;;;;;;6.80;4.93;;;;;;;;;;4933617;29;20031;-74
2023/07/27 09:52:29;;;;;;;6.10;5.07;;;;;;;;;;4933115;29;20483;-73
2023/07/27 09:54:56;;;;;;;5.45;5.00;;;;;;;;;;4931859;29;20495;-72
2023/07/27 09:57:22;;;;;;;5.93;5.38;;;;;;;;;;4932720;29;20115;-72
2023/07/27 09:59:48;;;;;;;6.20;5.32;;;;;;;;;;4932058;29;20523;-73
2023/07/27 10:02:14;;;;;;;5.68;4.78;;;;;;;;;;4932712;29;20047;-73
2023/07/27 10:04:41;;;;;;;5.00;4.60;;;;;;;;;;4932112;29;20036;-72
2023/07/27 10:07:07;;;;;;;5.22;4.55;;;;;;;;;;4932714;29;20462;-73
2023/07/27 10:09:33;;;;;;;6.38;4.70;;;;;;;;;;4931851;29;20082;-72
2023/07/27 10:11:59;;;;;;;4.80;4.40;;;;;;;;;;4932981;29;20388;-73
2023/07/27 10:14:26;;;;;;;4.95;4.43;;;;;;;;;;4931636;29;20111;-72
2023/07/27 10:16:58;;;;;;;6.05;5.45;;;;;;;;;;4932962;29;20537;-74
2023/07/27 10:19:25;;;;;;;5.05;4.55;;;;;;;;;;4932682;29;20042;-73
2023/07/27 10:21:51;;;;;;;5.25;4.95;;;;;;;;;;4932817;29;20047;-72
2023/07/27 10:24:24;;;;;;;4.95;4.65;;;;;;;;;;4932503;29;20043;-73
2023/07/27 10:26:54;;;;;;;6.13;5.50;;;;;;;;;;4932978;29;20400;-73
2023/07/27 10:29:24;;;;;;;7.20;5.28;;;;;;;;;;4932594;29;20123;-72
2023/07/27 10:32:19;;;;;;;6.57;5.45;;;;;;;;;;4933348;29;20098;-73
2023/07/27 10:34:48;;;;;;;6.90;5.30;;;;;;;;;;4924414;29;20059;-73
2023/07/27 10:37:14;;;;;;;5.18;4.70;;;;;;;;;;4932649;29;20039;-72
2023/07/27 10:39:47;;;;;;;5.43;4.93;;;;;;;;;;4937157;29;20481;-73
2023/07/27 10:42:19;;;;;;;5.07;4.70;;;;;;;;;;4937754;29;20047;-71
2023/07/27 10:44:46;;;;;;;4.88;4.57;;;;;;;;;;4937835;29;20067;-71
2023/07/27 10:47:16;;;;;;;5.63;5.13;;;;;;;;;;4936308;29;20050;-73
2023/07/27 10:49:45;;;;;;;5.22;4.70;;;;;;;;;;4936853;29;20475;-73
2023/07/27 10:52:18;;;;;;;13.20;4.90;;;;;;;;;;4936611;29;20043;-74
2023/07/27 10:54:44;;;;;;;5.10;4.60;;;;;;;;;;4936439;29;20074;-73
2023/07/27 10:57:11;;;;;;;4.88;4.45;;;;;;;;;;4935552;29;20499;-74
2023/07/27 10:59:38;;;;;;;5.28;4.80;;;;;;;;;;4935964;29;20356;-72
2023/07/27 11:02:10;;;;;;;6.68;4.38;;;;;;;;;;4935980;29;20124;-74
2023/07/27 11:04:37;;;;;;;4.85;4.50;;;;;;;;;;4938742;29;20092;-73
2023/07/27 11:07:03;;;;;;;4.82;4.28;;;;;;;;;;4937155;29;20137;-72
2023/07/27 11:09:29;;;;;;;7.03;4.53;;;;;;;;;;4934749;29;20578;-73
2023/07/27 11:11:58;;;;;;;5.07;4.57;;;;;;;;;;4935930;29;20038;-73
2023/07/27 11:14:24;;;;;;;4.22;3.92;;;;;;;;;;4935574;29;20043;-72
2023/07/27 11:16:51;;;;;;;7.63;4.20;;;;;;;;;;4935847;29;20043;-72
2023/07/27 11:19:17;;;;;;;5.95;5.20;;;;;;;;;;4918643;29;20047;-74
2023/07/27 11:21:43;;;;;;;4.93;4.47;;;;;;;;;;4935586;29;20046;-73
2023/07/27 11:24:09;;;;;;;4.30;4.00;;;;;;;;;;4935691;29;20502;-73
2023/07/27 11:26:36;;;;;;;4.68;4.28;;;;;;;;;;4935609;29;20459;-73
2023/07/27 11:29:02;;;;;;;6.18;4.30;;;;;;;;;;4936034;29;20126;-71
2023/07/27 11:31:28;;;;;;;5.30;4.38;;;;;;;;;;4935757;29;20036;-73
2023/07/27 11:33:58;;;;;;;8.18;4.57;;;;;;;;;;4935793;29;20040;-74
2023/07/27 11:36:24;;;;;;;;;;;;;;;;;;4935813;29;20043;-72
2023/07/27 11:38:50;;;;;;;3.17;2.92;;;;;;;;;;4934529;29;20411;-73
2023/07/27 11:41:16;;;;;;;5.53;5.13;;;;;;;;;;4935385;29;20533;-72
2023/07/27 11:43:42;;;;;;;6.20;4.55;;;;;;;;;;4934260;29;20031;-73
2023/07/27 11:46:08;;;;;;;5.57;4.70;;;;;;;;;;4935513;29;20066;-72
2023/07/27 11:48:34;;;;;;;5.35;4.70;;;;;;;;;;4935080;29;20270;-73
2023/07/27 11:51:01;;;;;;;5.95;4.38;;;;;;;;;;4934914;29;20036;-71
2023/07/27 11:53:28;;;;;;;5.07;4.65;;;;;;;;;;4935065;29;20137;-73
2023/07/27 11:55:57;;;;;;;4.70;4.30;;;;;;;;;;4934607;29;20044;-72
2023/07/27 11:58:27;;;;;;;5.28;4.78;;;;;;;;;;4934256;29;20099;-74
2023/07/27 12:00:54;;;;;;;5.40;4.90;;;;;;;;;;4934391;29;20036;-73
2023/07/27 12:03:20;;;;;;;8.43;5.30;;;;;;;;;;4933573;29;20039;-73
2023/07/27 12:05:46;;;;;;;4.93;4.47;;;;;;;;;;4934260;29;20082;-73
2023/07/27 12:08:18;;;;;;;5.68;4.18;;;;;;;;;;4935096;29;20051;-76
2023/07/27 12:10:54;;;;;;;4.80;4.38;;;;;;;;;;4934216;29;20036;-72
2023/07/27 12:13:22;;;;;;;4.88;4.38;;;;;;;;;;4934721;29;20122;-72
2023/07/27 12:15:55;;;;;;;4.32;3.92;;;;;;;;;;4935034;29;20039;-72
2023/07/27 12:18:22;;;;;;;3.95;3.65;;;;;;;;;;4934890;29;20036;-74
2023/07/27 12:20:48;;;;;;;3.50;3.20;;;;;;;;;;4935075;29;20507;-73
2023/07/27 12:23:14;;;;;;;4.47;3.65;;;;;;;;;;4934550;29;20079;-72
2023/07/27 12:25:40;;;;;;;4.00;3.63;;;;;;;;;;4934826;29;20388;-73
2023/07/27 12:28:08;;;;;;;5.20;4.70;;;;;;;;;;4934702;29;20075;-72
2023/07/27 12:30:34;;;;;;;4.75;3.90;;;;;;;;;;4933417;29;20044;-73
2023/07/27 12:33:00;;;;;;;4.10;3.78;;;;;;;;;;4934630;29;20043;-72
2023/07/27 12:35:28;;;;;;;4.45;4.00;;;;;;;;;;4917561;29;20043;-73
2023/07/27 12:37:55;;;;;;;4.85;4.45;;;;;;;;;;4934669;29;20050;-72
2023/07/27 12:40:21;;;;;;;5.97;3.92;;;;;;;;;;4934262;29;20549;-72
2023/07/27 12:42:47;;;;;;;5.10;3.80;;;;;;;;;;4917283;29;20038;-73
2023/07/27 12:45:13;;;;;;;3.92;3.63;;;;;;;;;;4934439;29;20036;-72
2023/07/27 12:47:42;;;;;;;4.60;4.00;;;;;;;;;;4933979;29;20054;-72
2023/07/27 12:50:09;;;;;;;10.77;4.72;;;;;;;;;;4934461;29;20060;-73
2023/07/27 12:52:35;;;;;;;4.53;4.13;;;;;;;;;;4934135;29;20122;-73
2023/07/27 12:55:01;;;;;;;4.75;4.45;;;;;;;;;;4934174;29;20491;-72
2023/07/27 12:57:28;;;;;;;4.22;3.92;;;;;;;;;;4932503;29;20581;-73
2023/07/27 12:59:54;;;;;;;7.18;4.72;;;;;;;;;;4934254;29;20118;-72
2023/07/27 13:02:19;;;;;;;4.78;4.30;;;;;;;;;;4933618;29;20118;-73
2023/07/27 13:04:46;;;;;;;6.43;5.82;;;;;;;;;;4934200;29;20036;-73
2023/07/27 13:07:13;;;;;;;6.68;6.07;;;;;;;;;;4933870;29;20130;-73
2023/07/27 13:09:40;;;;;;;8.90;6.75;;;;;;;;;;4933768;29;20047;-73
2023/07/27 13:12:08;;;;;;;7.50;6.80;;;;;;;;;;4933929;29;20043;-72
2023/07/27 13:14:35;;;;;;;7.45;6.85;;;;;;;;;;4932416;29;20511;-74
2023/07/27 13:17:01;;;;;;;6.93;6.30;;;;;;;;;;4933183;29;20450;-73
2023/07/27 13:19:26;;;;;;;10.35;8.10;;;;;;;;;;4933417;29;20036;-73
2023/07/27 13:21:52;;;;;;;7.55;6.57;;;;;;;;;;4932399;29;20040;-72
2023/07/27 13:24:18;;;;;;;9.82;8.00;;;;;;;;;;4932090;29;20040;-76
2023/07/27 13:26:44;;;;;;;8.00;7.05;;;;;;;;;;4931907;29;20031;-76
2023/07/27 13:29:15;;;;;;;8.70;7.90;;;;;;;;;;4933639;29;20043;-73
2023/07/27 13:31:41;;;;;;;8.13;7.32;;;;;;;;;;4933797;29;20032;-74
2023/07/27 13:34:07;;;;;;;9.68;8.80;;;;;;;;;;4937232;29;20070;-74
2023/07/27 13:36:33;;;;;;;12.73;8.48;;;;;;;;;;4937957;29;20490;-74
2023/07/27 13:38:59;;;;;;;9.55;8.35;;;;;;;;;;4941638;29;20475;-74
2023/07/27 13:41:25;;;;;;;8.52;6.88;;;;;;;;;;4933469;29;20118;-73
2023/07/27 13:43:53;;;;;;;8.90;7.10;;;;;;;;;;4935766;29;20127;-73
2023/07/27 13:46:20;;;;;;;6.57;6.07;;;;;;;;;;4938859;29;20039;-73
2023/07/27 13:48:45;;;;;;;6.90;6.28;;;;;;;;;;4945378;29;20047;-72
2023/07/27 13:51:11;;;;;;;9.75;6.53;;;;;;;;;;4934607;28;20044;-73
2023/07/27 13:53:37;;;;;;;7.78;6.95;;;;;;;;;;4933972;29;20502;-72
2023/07/27 13:56:04;;;;;;;6.90;6.20;;;;;;;;;;4933537;29;20043;-73
2023/07/27 13:58:30;;;;;;;7.63;6.93;;;;;;;;;;4932699;29;20040;-73
2023/07/27 14:00:56;;;;;;;6.15;5.72;;;;;;;;;;4933759;29;20042;-74
2023/07/27 14:03:22;;;;;;;7.85;4.97;;;;;;;;;;4930740;29;20032;-71
2023/07/27 14:05:48;;;;;;;7.30;4.60;;;;;;;;;;4933159;29;20070;-72
2023/07/27 14:08:15;;;;;;;6.68;5.85;;;;;;;;;;4932763;29;20126;-74
2023/07/27 14:10:41;;;;;;;7.93;7.13;;;;;;;;;;4939893;29;20019;-73
2023/07/27 14:13:07;;;;;;;6.25;5.75;;;;;;;;;;4932861;29;20046;-74
2023/07/27 14:15:33;;;;;;;5.72;5.22;;;;;;;;;;4921008;29;20042;-74
2023/07/27 14:18:00;;;;;;;7.30;6.60;;;;;;;;;;4933178;29;20507;-74
2023/07/27 14:20:26;;;;;;;7.00;5.68;;;;;;;;;;4920568;29;20055;-73
2023/07/27 14:22:52;;;;;;;8.10;6.70;;;;;;;;;;4917574;29;20051;-71
2023/07/27 14:25:18;;;;;;;10.15;4.90;;;;;;;;;;4936757;29;20414;-74
2023/07/27 14:27:44;;;;;;;8.05;5.15;;;;;;;;;;4936292;29;20052;-73
2023/07/27 14:30:10;;;;;;;8.80;5.43;;;;;;;;;;4929242;29;20043;-74
2023/07/27 14:32:36;;;;;;;9.65;5.30;;;;;;;;;;4929763;29;20039;-73